Terminal Aerodrome Forecast
Issued by NWS

Current Version | Previous Version | Graphics & Text | Print | Product List | Glossary On
Versions: 1 2 3 4 5 6 7 8 9 10 11 12 13 14 15 16 17 18 19 20 21 22 23
000
FTUS41 KRLX 281100
TAFCKB
TAF
KCKB 281120Z 2812/2912 20007KT P6SM SCT140 BKN250
     FM281500 21008G15KT P6SM BKN250
     FM281800 21012G20KT P6SM BKN050
     FM290100 23006KT 5SM BR VCTS BKN030CB
     FM290300 25005KT 3SM SHRA BR OVC025=

USA.gov is the U.S. government's official web portal to all federal, state and local government web resources and services.